createdAt,value
2022-10-13T00:00:50.417Z,15.20
2022-10-13T00:02:55.299Z,16.70
2022-10-13T00:04:59.910Z,17.40
2022-10-13T00:07:05.226Z,16.20
2022-10-13T00:09:09.883Z,17.10
2022-10-13T00:11:17.959Z,18.10
2022-10-13T00:13:22.651Z,17.20
2022-10-13T00:15:27.265Z,18.10
2022-10-13T00:17:31.908Z,16.80
2022-10-13T00:19:36.608Z,16.60
2022-10-13T00:21:41.839Z,17.50
2022-10-13T00:23:46.892Z,18.10
2022-10-13T00:25:54.350Z,16.50
2022-10-13T00:28:00.247Z,18.00
2022-10-13T00:30:11.157Z,18.80
2022-10-13T00:32:17.349Z,17.70
2022-10-13T00:34:22.297Z,18.20
2022-10-13T00:36:27.298Z,18.70
2022-10-13T00:38:31.999Z,18.50
2022-10-13T00:40:44.740Z,16.30
2022-10-13T00:42:49.443Z,17.20
2022-10-13T00:45:19.871Z,18.00
2022-10-13T00:47:25.795Z,18.30
2022-10-13T00:49:30.901Z,18.10
2022-10-13T00:51:39.454Z,17.10
2022-10-13T00:53:46.874Z,19.60
2022-10-13T00:55:53.325Z,17.60
2022-10-13T00:58:05.413Z,17.70
2022-10-13T01:00:12.580Z,17.30
2022-10-13T01:02:17.735Z,16.70
2022-10-13T01:04:26.258Z,17.70
2022-10-13T01:06:31.814Z,17.00
2022-10-13T01:08:36.539Z,18.70
2022-10-13T01:10:52.442Z,17.80
2022-10-13T01:13:05.470Z,16.50
2022-10-13T01:15:17.346Z,20.00
2022-10-13T01:17:28.725Z,17.70
2022-10-13T01:19:55.104Z,15.90
2022-10-13T01:22:08.591Z,18.90
2022-10-13T01:24:46.744Z,18.70
2022-10-13T01:27:12.816Z,16.40
2022-10-13T01:29:38.819Z,18.80
2022-10-13T01:31:50.533Z,18.80
2022-10-13T01:34:03.994Z,20.30
2022-10-13T01:36:21.079Z,17.60
2022-10-13T01:38:33.762Z,16.20
2022-10-13T01:40:44.282Z,20.10
2022-10-13T01:42:58.767Z,18.00
2022-10-13T01:45:04.466Z,18.40
2022-10-13T01:47:11.584Z,19.50
2022-10-13T01:49:19.291Z,18.40
2022-10-13T01:51:26.564Z,19.50
2022-10-13T01:53:31.808Z,21.90
2022-10-13T01:55:36.499Z,19.30
2022-10-13T01:57:43.093Z,20.20
2022-10-13T01:59:48.168Z,19.00
2022-10-13T02:02:03.345Z,18.90
2022-10-13T02:04:20.923Z,21.70
2022-10-13T02:06:31.205Z,19.40
2022-10-13T02:08:45.198Z,23.30
2022-10-13T02:10:57.425Z,20.20
2022-10-13T02:13:04.588Z,18.60
2022-10-13T02:15:13.977Z,20.50
2022-10-13T02:17:19.488Z,18.80
2022-10-13T02:19:24.763Z,17.30
2022-10-13T02:21:30.630Z,19.20
2022-10-13T02:23:38.102Z,19.90
2022-10-13T02:25:43.549Z,20.00
2022-10-13T02:27:48.325Z,18.30
2022-10-13T02:29:56.841Z,19.10
2022-10-13T02:32:05.313Z,18.40
2022-10-13T02:34:10.365Z,19.90
2022-10-13T02:36:14.994Z,17.80
2022-10-13T02:38:19.688Z,21.50
2022-10-13T02:40:27.312Z,18.40
2022-10-13T02:42:31.962Z,17.70
2022-10-13T02:44:37.019Z,19.20
2022-10-13T02:46:41.743Z,20.40
2022-10-13T02:48:46.376Z,20.30
2022-10-13T02:50:51.086Z,21.50
2022-10-13T02:52:55.788Z,16.90
2022-10-13T02:55:00.649Z,18.60
2022-10-13T02:57:05.441Z,17.20
2022-10-13T02:59:10.105Z,20.40
2022-10-13T03:01:15.630Z,17.50
2022-10-13T03:03:20.421Z,18.90
2022-10-13T03:05:26.908Z,16.60
2022-10-13T03:07:31.594Z,20.60
2022-10-13T03:09:36.333Z,19.00
2022-10-13T03:11:41.043Z,17.00
2022-10-13T03:13:45.772Z,19.50
2022-10-13T03:15:50.709Z,18.20
2022-10-13T03:17:56.852Z,17.10
2022-10-13T03:20:01.497Z,19.80
2022-10-13T03:22:06.201Z,16.80
2022-10-13T03:24:10.943Z,18.20
2022-10-13T03:26:15.656Z,20.70
2022-10-13T03:28:20.663Z,19.10
2022-10-13T03:30:29.140Z,20.90
2022-10-13T03:32:33.765Z,21.10
2022-10-13T03:34:38.511Z,20.90
2022-10-13T03:36:43.192Z,26.80
2022-10-13T03:38:47.886Z,23.40
2022-10-13T03:40:52.716Z,20.50
2022-10-13T03:42:57.356Z,24.80
2022-10-13T03:45:02.089Z,44.70
2022-10-13T03:47:06.931Z,40.90
2022-10-13T03:49:12.772Z,43.10
2022-10-13T03:51:19.569Z,46.80
2022-10-13T03:53:24.572Z,45.70
2022-10-13T03:55:29.232Z,96.70
2022-10-13T03:57:33.935Z,32.30
2022-10-13T03:59:39.042Z,33.90
2022-10-13T04:01:45.452Z,21.40
2022-10-13T04:03:50.797Z,19.50
2022-10-13T04:05:55.460Z,20.80
2022-10-13T04:08:00.112Z,21.50
2022-10-13T04:10:10.198Z,22.10
2022-10-13T04:12:20.669Z,22.40
2022-10-13T04:14:25.905Z,22.70
2022-10-13T04:16:35.760Z,22.40
2022-10-13T04:18:44.849Z,22.40
2022-10-13T04:20:49.851Z,21.40
2022-10-13T04:22:54.512Z,22.60
2022-10-13T04:24:59.156Z,23.30
2022-10-13T04:27:04.768Z,22.10
2022-10-13T04:29:11.127Z,25.00
2022-10-13T04:31:16.592Z,23.10
2022-10-13T04:33:21.458Z,24.30
2022-10-13T04:35:26.271Z,23.10
2022-10-13T04:37:30.901Z,24.50
2022-10-13T04:39:35.667Z,25.20
2022-10-13T04:41:40.354Z,25.10
2022-10-13T04:43:47.181Z,24.20
2022-10-13T04:45:52.031Z,24.30
2022-10-13T04:47:56.722Z,22.80
2022-10-13T04:50:01.422Z,23.10
2022-10-13T04:52:06.214Z,23.40
2022-10-13T04:54:10.968Z,23.20
2022-10-13T04:56:17.379Z,24.30
2022-10-13T04:58:22.456Z,23.60
2022-10-13T05:00:27.175Z,22.40
2022-10-13T05:02:31.933Z,20.80
2022-10-13T05:04:36.678Z,23.80
2022-10-13T05:07:05.212Z,22.00
2022-10-13T05:09:14.389Z,21.60
2022-10-13T05:11:19.585Z,24.00
2022-10-13T05:13:24.759Z,20.90
2022-10-13T05:15:29.520Z,25.40
2022-10-13T05:17:35.548Z,22.70
2022-10-13T05:19:43.703Z,23.90
2022-10-13T05:21:48.337Z,23.40
2022-10-13T05:23:53.775Z,20.30
2022-10-13T05:26:00.656Z,23.50
2022-10-13T05:28:06.816Z,22.60
2022-10-13T05:30:13.411Z,25.40
2022-10-13T05:32:18.414Z,22.90
2022-10-13T05:34:23.312Z,24.30
2022-10-13T05:36:29.646Z,24.50
2022-10-13T05:38:34.514Z,22.10
2022-10-13T05:40:39.264Z,23.60
2022-10-13T05:42:43.897Z,21.90
2022-10-13T05:44:48.886Z,24.60
2022-10-13T05:46:53.781Z,22.40
2022-10-13T05:48:58.685Z,22.90
2022-10-13T05:51:09.633Z,25.10
2022-10-13T05:53:14.393Z,25.00
2022-10-13T05:55:20.025Z,21.10
2022-10-13T05:57:27.980Z,21.70
2022-10-13T05:59:36.988Z,23.30
2022-10-13T06:01:42.327Z,22.10
2022-10-13T06:03:49.814Z,24.20
2022-10-13T06:05:54.587Z,21.80
2022-10-13T06:07:59.299Z,23.00
2022-10-13T06:10:04.385Z,22.30
2022-10-13T06:12:10.076Z,21.60
2022-10-13T06:14:14.865Z,22.30
2022-10-13T06:16:19.675Z,19.90
2022-10-13T06:18:24.355Z,22.00
2022-10-13T06:20:29.391Z,19.90
2022-10-13T06:22:34.644Z,21.90
2022-10-13T06:24:39.345Z,21.50
2022-10-13T06:26:46.513Z,24.60
2022-10-13T06:28:54.441Z,19.80
2022-10-13T06:31:03.627Z,20.30
2022-10-13T06:33:08.222Z,24.60
2022-10-13T06:35:13.662Z,20.70
2022-10-13T06:37:19.639Z,24.80
2022-10-13T06:39:26.826Z,21.60
2022-10-13T06:41:31.453Z,23.30
2022-10-13T06:43:40.319Z,21.60
2022-10-13T06:45:47.704Z,19.70
2022-10-13T06:47:54.592Z,24.40
2022-10-13T06:49:59.363Z,25.10
2022-10-13T06:52:05.306Z,21.80
2022-10-13T06:54:09.955Z,26.10
2022-10-13T06:56:14.931Z,24.10
2022-10-13T06:58:19.710Z,23.50
2022-10-13T07:00:24.445Z,24.90
2022-10-13T07:02:29.251Z,28.70
2022-10-13T07:04:33.858Z,28.50
2022-10-13T07:06:38.490Z,29.70
2022-10-13T07:08:43.282Z,32.70
2022-10-13T07:10:47.900Z,29.90
2022-10-13T07:12:52.563Z,28.10
2022-10-13T07:14:57.194Z,34.40
2022-10-13T07:17:01.828Z,27.80
2022-10-13T07:19:06.485Z,30.50
2022-10-13T07:21:11.185Z,30.00
2022-10-13T07:23:16.274Z,27.90
2022-10-13T07:25:21.037Z,27.60
2022-10-13T07:27:25.878Z,28.10
2022-10-13T07:29:30.678Z,30.10
2022-10-13T07:31:35.394Z,26.60
2022-10-13T07:33:40.672Z,26.60
2022-10-13T07:35:45.487Z,29.30
2022-10-13T07:37:52.013Z,28.90
2022-10-13T07:39:56.711Z,29.70
2022-10-13T07:42:03.059Z,29.80
2022-10-13T07:44:08.161Z,29.60
2022-10-13T07:46:13.706Z,31.80
2022-10-13T07:48:18.444Z,29.10
2022-10-13T07:50:23.537Z,30.10
2022-10-13T07:52:28.262Z,30.70
2022-10-13T07:54:32.966Z,33.90
2022-10-13T07:56:37.684Z,28.20
2022-10-13T07:58:44.198Z,29.80
2022-10-13T08:00:57.262Z,28.80
2022-10-13T08:03:03.462Z,32.10
2022-10-13T08:05:09.026Z,34.00
2022-10-13T08:07:13.716Z,30.60
2022-10-13T08:09:18.386Z,28.10
2022-10-13T08:11:23.037Z,34.60
2022-10-13T08:13:27.830Z,30.20
2022-10-13T08:15:32.456Z,30.90
2022-10-13T08:17:37.097Z,30.30
2022-10-13T08:19:41.747Z,29.90
2022-10-13T08:22:01.860Z,28.20
2022-10-13T08:24:10.213Z,28.60
2022-10-13T08:26:21.112Z,27.70
2022-10-13T08:28:27.766Z,32.00
2022-10-13T08:30:32.665Z,28.20
2022-10-13T08:32:40.219Z,27.40
2022-10-13T08:34:44.876Z,32.20
2022-10-13T08:36:49.622Z,34.20
2022-10-13T08:38:54.236Z,32.20
2022-10-13T08:40:58.962Z,25.80
2022-10-13T08:43:07.217Z,30.70
2022-10-13T08:45:40.313Z,28.90
2022-10-13T08:47:46.654Z,31.50
2022-10-13T08:49:54.350Z,30.20
2022-10-13T08:52:05.459Z,32.60
2022-10-13T08:54:11.949Z,29.00
2022-10-13T08:56:21.728Z,31.40
2022-10-13T08:58:29.094Z,26.70
2022-10-13T09:00:33.843Z,31.60
2022-10-13T09:02:40.055Z,33.30
2022-10-13T09:04:49.776Z,31.20
2022-10-13T09:06:58.732Z,32.10
2022-10-13T09:09:05.526Z,33.30
2022-10-13T09:11:12.995Z,31.20
2022-10-13T09:13:18.622Z,30.50
2022-10-13T09:15:23.357Z,30.30
2022-10-13T09:17:29.338Z,34.10
2022-10-13T09:19:35.325Z,34.70
2022-10-13T09:21:40.546Z,32.30
2022-10-13T09:23:45.308Z,32.70
2022-10-13T09:25:51.787Z,29.10
2022-10-13T09:27:58.752Z,33.40
2022-10-13T09:30:26.870Z,32.30
2022-10-13T09:32:36.902Z,63.30
2022-10-13T09:34:41.661Z,39.40
2022-10-13T09:37:00.787Z,33.50
2022-10-13T09:39:12.807Z,32.30
2022-10-13T09:41:21.691Z,33.20
2022-10-13T09:43:31.888Z,34.70
2022-10-13T09:45:36.703Z,36.80
2022-10-13T09:47:41.734Z,33.00
2022-10-13T09:49:57.871Z,33.90
2022-10-13T09:52:04.526Z,40.20
2022-10-13T09:54:27.830Z,31.70
2022-10-13T09:56:40.748Z,39.70
2022-10-13T09:58:51.631Z,38.10
2022-10-13T10:00:57.711Z,35.20
2022-10-13T10:03:06.304Z,36.30
2022-10-13T10:05:22.199Z,37.20
2022-10-13T10:07:32.679Z,36.30
2022-10-13T10:09:41.380Z,34.30
2022-10-13T10:11:50.202Z,42.00
2022-10-13T10:13:55.487Z,36.10
2022-10-13T10:16:07.437Z,39.50
2022-10-13T10:18:17.726Z,38.40
2022-10-13T10:20:43.505Z,38.30
2022-10-13T10:22:56.901Z,39.50
2022-10-13T10:25:10.669Z,38.30
2022-10-13T10:27:21.728Z,37.60
2022-10-13T10:29:45.789Z,36.60
2022-10-13T10:32:11.835Z,32.90
2022-10-13T10:34:36.383Z,40.70
2022-10-13T10:36:49.830Z,40.40
2022-10-13T10:38:58.599Z,38.40
2022-10-13T10:41:12.566Z,40.80
2022-10-13T10:43:41.305Z,39.10
2022-10-13T10:45:49.085Z,41.60
2022-10-13T10:47:57.828Z,40.10
2022-10-13T10:50:08.401Z,42.90
2022-10-13T10:52:32.924Z,41.30
2022-10-13T10:54:51.770Z,42.80
2022-10-13T10:57:00.676Z,40.60
2022-10-13T10:59:16.841Z,40.40
2022-10-13T11:01:36.346Z,39.00
2022-10-13T11:03:50.813Z,40.70
2022-10-13T11:06:20.876Z,40.70
2022-10-13T11:08:30.976Z,41.60
2022-10-13T11:10:35.702Z,37.80
2022-10-13T11:13:20.311Z,39.40
2022-10-13T11:15:31.544Z,41.50
2022-10-13T11:17:38.041Z,38.80
2022-10-13T11:19:42.934Z,38.80
2022-10-13T11:22:15.109Z,36.40
2022-10-13T11:24:46.819Z,35.70
2022-10-13T11:26:52.849Z,34.00
2022-10-13T11:28:57.892Z,33.10
2022-10-13T11:31:25.968Z,34.30
2022-10-13T11:33:53.962Z,41.10
2022-10-13T11:35:58.642Z,37.90
2022-10-13T11:38:44.127Z,41.80
2022-10-13T11:41:09.424Z,38.50
2022-10-13T11:43:34.719Z,37.90
2022-10-13T11:46:05.329Z,36.70
2022-10-13T11:48:32.360Z,40.40
2022-10-13T11:50:42.559Z,37.20
2022-10-13T11:53:02.166Z,35.60
2022-10-13T11:55:13.744Z,36.90
2022-10-13T11:57:22.799Z,34.40
2022-10-13T11:59:29.126Z,34.00
2022-10-13T12:01:33.823Z,32.50
2022-10-13T12:03:41.019Z,36.30
2022-10-13T12:05:50.381Z,33.80
2022-10-13T12:07:58.701Z,32.40
2022-10-13T12:10:06.032Z,28.50
2022-10-13T12:12:16.244Z,33.40
2022-10-13T12:14:26.259Z,31.20
2022-10-13T12:16:30.894Z,33.70
2022-10-13T12:18:37.257Z,34.80
2022-10-13T12:20:41.875Z,34.50
2022-10-13T12:22:50.622Z,36.30
2022-10-13T12:25:04.064Z,37.20
2022-10-13T12:27:20.395Z,38.10
2022-10-13T12:29:27.050Z,47.80
2022-10-13T12:31:40.867Z,40.10
2022-10-13T12:33:51.584Z,47.30
2022-10-13T12:35:56.574Z,46.50
2022-10-13T12:38:06.099Z,40.60
2022-10-13T12:40:19.056Z,41.30
2022-10-13T12:42:28.634Z,43.50
2022-10-13T12:44:34.271Z,41.60
2022-10-13T12:46:41.262Z,42.60
2022-10-13T12:48:45.998Z,43.90
2022-10-13T12:50:50.724Z,50.80
2022-10-13T12:53:03.205Z,42.60
2022-10-13T12:55:19.472Z,42.90
2022-10-13T12:57:31.501Z,42.20
2022-10-13T12:59:42.631Z,40.90
2022-10-13T13:01:52.411Z,43.80
2022-10-13T13:03:59.879Z,42.70
2022-10-13T13:06:21.654Z,38.20
2022-10-13T13:08:28.138Z,39.70
2022-10-13T13:10:32.896Z,37.70
2022-10-13T13:12:37.970Z,38.20
2022-10-13T13:14:48.925Z,35.20
2022-10-13T13:17:17.362Z,43.50
2022-10-13T13:19:24.871Z,38.80
2022-10-13T13:21:29.482Z,40.10
2022-10-13T13:23:34.360Z,36.10
2022-10-13T13:25:41.121Z,39.80
2022-10-13T13:27:45.797Z,37.80
2022-10-13T13:29:54.983Z,41.40
2022-10-13T13:31:59.588Z,36.70
2022-10-13T13:34:04.227Z,39.10
2022-10-13T13:36:16.121Z,41.50
2022-10-13T13:38:21.550Z,40.30
2022-10-13T13:40:28.679Z,43.60
2022-10-13T13:42:33.412Z,41.40
2022-10-13T13:44:38.112Z,40.40
2022-10-13T13:46:42.762Z,40.00
2022-10-13T13:48:47.544Z,42.10
2022-10-13T13:50:52.255Z,40.00
2022-10-13T13:52:57.041Z,43.40
2022-10-13T13:55:01.704Z,43.00
2022-10-13T13:57:06.500Z,41.20
2022-10-13T13:59:11.689Z,38.60
2022-10-13T14:01:16.478Z,37.10
2022-10-13T14:03:21.264Z,38.00
2022-10-13T14:05:26.195Z,42.30
2022-10-13T14:07:30.840Z,40.50
2022-10-13T14:09:35.767Z,40.30
2022-10-13T14:11:40.316Z,40.50
2022-10-13T14:13:47.887Z,32.60
2022-10-13T14:16:03.481Z,37.90
2022-10-13T14:18:08.367Z,41.40
2022-10-13T14:20:13.530Z,36.90
2022-10-13T14:22:19.628Z,38.50
2022-10-13T14:24:24.324Z,39.30
2022-10-13T14:26:29.000Z,35.70
2022-10-13T14:28:33.664Z,40.60
2022-10-13T14:30:40.810Z,40.90
2022-10-13T14:32:45.468Z,36.60
2022-10-13T14:34:50.115Z,38.30
2022-10-13T14:36:54.872Z,34.50
2022-10-13T14:38:59.731Z,36.50
2022-10-13T14:41:05.925Z,38.90
2022-10-13T14:43:10.522Z,37.50
2022-10-13T14:45:15.230Z,37.00
2022-10-13T14:47:20.047Z,35.30
2022-10-13T14:49:24.807Z,38.20
2022-10-13T14:51:29.460Z,37.00
2022-10-13T14:53:36.331Z,37.00
2022-10-13T14:55:40.964Z,43.70
2022-10-13T14:57:45.579Z,35.40
2022-10-13T14:59:50.899Z,37.90
2022-10-13T15:01:55.479Z,40.20
2022-10-13T15:04:00.275Z,42.80
2022-10-13T15:06:05.558Z,37.20
2022-10-13T15:08:10.242Z,42.80
2022-10-13T15:10:14.964Z,41.00
2022-10-13T15:12:19.930Z,40.50
2022-10-13T15:14:25.084Z,38.70
2022-10-13T15:16:33.515Z,39.20
2022-10-13T15:18:38.169Z,72.30
2022-10-13T15:20:46.847Z,47.20
2022-10-13T15:22:51.563Z,143.70
2022-10-13T15:24:56.404Z,96.40
2022-10-13T15:27:01.092Z,69.70
2022-10-13T15:29:07.590Z,51.30
2022-10-13T15:31:12.878Z,58.90
2022-10-13T15:33:20.581Z,42.70
2022-10-13T15:35:28.966Z,39.00
2022-10-13T15:37:33.675Z,40.80
2022-10-13T15:39:38.831Z,40.10
2022-10-13T15:41:43.494Z,40.60
2022-10-13T15:43:48.285Z,37.30
2022-10-13T15:45:59.387Z,36.30
2022-10-13T15:48:04.955Z,36.20
2022-10-13T15:50:10.671Z,34.90
2022-10-13T15:52:15.453Z,31.60
2022-10-13T15:54:21.900Z,33.60
2022-10-13T15:56:26.567Z,33.50
2022-10-13T15:58:31.257Z,31.50
2022-10-13T16:00:35.967Z,31.10
2022-10-13T16:02:41.193Z,30.40
2022-10-13T16:04:45.856Z,30.90
2022-10-13T16:06:50.534Z,28.10
2022-10-13T16:08:55.269Z,27.10
2022-10-13T16:11:00.057Z,30.80
2022-10-13T16:13:04.697Z,29.10
2022-10-13T16:15:10.800Z,30.70
2022-10-13T16:17:15.516Z,29.30
2022-10-13T16:19:20.297Z,31.10
2022-10-13T16:21:25.935Z,32.40
2022-10-13T16:23:30.677Z,28.60
2022-10-13T16:25:38.404Z,35.70
2022-10-13T16:27:44.613Z,27.10
2022-10-13T16:29:49.565Z,28.50
2022-10-13T16:31:54.272Z,30.20
2022-10-13T16:33:59.006Z,30.20
2022-10-13T16:36:08.856Z,31.20
2022-10-13T16:38:14.691Z,27.70
2022-10-13T16:40:19.394Z,28.70
2022-10-13T16:42:24.089Z,35.10
2022-10-13T16:44:28.771Z,29.80
2022-10-13T16:46:33.395Z,30.70
2022-10-13T16:48:38.064Z,29.20
2022-10-13T16:50:42.974Z,27.70
2022-10-13T16:52:47.947Z,28.80
2022-10-13T16:54:52.619Z,27.70
2022-10-13T16:56:57.310Z,30.60
2022-10-13T16:59:04.163Z,29.40
2022-10-13T17:01:13.759Z,33.70
2022-10-13T17:03:18.656Z,31.30
2022-10-13T17:05:25.630Z,31.30
2022-10-13T17:07:32.124Z,30.60
2022-10-13T17:09:37.228Z,35.40
2022-10-13T17:11:41.891Z,34.60
2022-10-13T17:13:46.893Z,31.40
2022-10-13T17:15:53.169Z,32.60
2022-10-13T17:18:00.386Z,38.40
2022-10-13T17:20:06.060Z,40.60
2022-10-13T17:22:11.739Z,34.30
2022-10-13T17:24:18.727Z,32.50
2022-10-13T17:26:29.304Z,35.20
2022-10-13T17:28:36.479Z,33.70
2022-10-13T17:30:42.932Z,32.90
2022-10-13T17:32:48.181Z,33.80
2022-10-13T17:34:54.563Z,36.20
2022-10-13T17:37:00.512Z,37.10
2022-10-13T17:39:08.707Z,36.10
2022-10-13T17:41:19.248Z,34.40
2022-10-13T17:43:28.551Z,33.20
2022-10-13T17:45:35.605Z,31.90
2022-10-13T17:47:47.809Z,32.40
2022-10-13T17:49:53.620Z,34.00
2022-10-13T17:52:01.892Z,34.40
2022-10-13T17:54:11.627Z,37.10
2022-10-13T17:56:23.640Z,35.50
2022-10-13T17:58:38.203Z,40.90
2022-10-13T18:01:11.422Z,38.20
2022-10-13T18:03:09.339Z,37.70
2022-10-13T18:05:14.895Z,39.10
2022-10-13T18:07:19.945Z,41.20
2022-10-13T18:09:29.959Z,34.80
2022-10-13T18:11:35.643Z,34.20
2022-10-13T18:13:41.532Z,32.70
2022-10-13T18:15:46.991Z,32.70
2022-10-13T18:17:54.603Z,35.30
2022-10-13T18:20:02.652Z,32.20
2022-10-13T18:22:09.399Z,36.20
2022-10-13T18:24:18.207Z,31.50
2022-10-13T18:26:25.587Z,33.40
2022-10-13T18:28:34.494Z,44.30
2022-10-13T18:30:40.861Z,36.80
2022-10-13T18:32:48.665Z,34.50
2022-10-13T18:34:58.447Z,33.20
2022-10-13T18:37:04.520Z,36.90
2022-10-13T18:39:14.619Z,34.00
2022-10-13T18:41:25.910Z,33.20
2022-10-13T18:43:32.968Z,31.90
2022-10-13T18:45:39.116Z,33.70
2022-10-13T18:47:45.491Z,32.80
2022-10-13T18:49:51.966Z,31.20
2022-10-13T18:51:58.303Z,32.10
2022-10-13T18:54:06.789Z,30.60
2022-10-13T18:56:16.516Z,31.60
2022-10-13T18:58:23.851Z,36.40
2022-10-13T19:00:31.918Z,31.90
2022-10-13T19:02:37.321Z,32.20
2022-10-13T19:04:45.127Z,33.20
2022-10-13T19:06:53.633Z,33.00
2022-10-13T19:09:02.614Z,33.70
2022-10-13T19:11:21.141Z,31.40
2022-10-13T19:13:26.993Z,36.50
2022-10-13T19:15:33.699Z,32.30
2022-10-13T19:17:39.926Z,31.80
2022-10-13T19:19:46.484Z,32.00
2022-10-13T19:21:52.418Z,31.10
2022-10-13T19:24:01.066Z,30.70
2022-10-13T19:26:14.845Z,33.80
2022-10-13T19:28:22.658Z,33.90
2022-10-13T19:30:34.383Z,38.80
2022-10-13T19:32:42.123Z,34.50
2022-10-13T19:34:49.982Z,34.30
2022-10-13T19:37:00.590Z,32.50
2022-10-13T19:39:13.382Z,29.30
2022-10-13T19:41:20.369Z,29.90
2022-10-13T19:43:28.875Z,31.40
2022-10-13T19:45:46.185Z,28.40
2022-10-13T19:47:54.681Z,31.30
2022-10-13T19:50:01.594Z,30.50
2022-10-13T19:52:07.889Z,33.10
2022-10-13T19:54:19.375Z,35.90
2022-10-13T19:56:37.326Z,34.20
2022-10-13T19:58:46.138Z,31.10
2022-10-13T20:00:52.247Z,34.10
2022-10-13T20:03:00.235Z,29.40
2022-10-13T20:05:08.935Z,29.10
2022-10-13T20:07:16.059Z,31.00
2022-10-13T20:09:21.422Z,32.30
2022-10-13T20:11:26.179Z,29.10
2022-10-13T20:13:31.656Z,26.90
2022-10-13T20:15:43.123Z,29.10
2022-10-13T20:17:48.460Z,42.00
2022-10-13T20:19:53.527Z,62.10
2022-10-13T20:21:58.235Z,46.00
2022-10-13T20:24:07.694Z,32.30
2022-10-13T20:26:13.894Z,35.40
2022-10-13T20:28:19.120Z,33.40
2022-10-13T20:30:24.066Z,31.10
2022-10-13T20:32:28.846Z,31.70
2022-10-13T20:34:33.555Z,29.50
2022-10-13T20:36:39.181Z,28.80
2022-10-13T20:38:44.193Z,27.90
2022-10-13T20:40:48.854Z,27.20
2022-10-13T20:42:53.900Z,26.90
2022-10-13T20:44:58.578Z,28.20
2022-10-13T20:47:03.205Z,28.00
2022-10-13T20:49:11.562Z,29.10
2022-10-13T20:51:19.454Z,28.00
2022-10-13T20:53:24.145Z,30.30
2022-10-13T20:55:30.097Z,29.80
2022-10-13T20:57:34.683Z,28.20
2022-10-13T20:59:39.672Z,28.10
2022-10-13T21:01:44.886Z,30.30
2022-10-13T21:03:52.736Z,29.30
2022-10-13T21:05:58.078Z,28.00
2022-10-13T21:08:02.823Z,33.30
2022-10-13T21:10:09.104Z,30.00
2022-10-13T21:12:14.107Z,28.60
2022-10-13T21:14:18.770Z,31.20
2022-10-13T21:16:25.179Z,30.10
2022-10-13T21:18:29.956Z,31.60
2022-10-13T21:20:35.981Z,31.80
2022-10-13T21:22:40.683Z,30.80
2022-10-13T21:24:47.643Z,29.80
2022-10-13T21:26:52.256Z,32.00
2022-10-13T21:29:00.676Z,32.20
2022-10-13T21:31:07.041Z,30.40
2022-10-13T21:33:12.059Z,31.50
2022-10-13T21:35:17.477Z,30.00
2022-10-13T21:37:22.845Z,31.50
2022-10-13T21:39:27.863Z,30.90
2022-10-13T21:41:32.612Z,29.40
2022-10-13T21:43:37.455Z,33.00
2022-10-13T21:45:42.178Z,30.50
2022-10-13T21:47:46.822Z,32.90
2022-10-13T21:49:52.914Z,29.60
2022-10-13T21:51:57.625Z,32.10
2022-10-13T21:54:04.463Z,30.90
2022-10-13T21:56:11.025Z,31.80
2022-10-13T21:58:15.635Z,31.10
2022-10-13T22:00:20.688Z,31.40
2022-10-13T22:02:25.363Z,30.50
2022-10-13T22:04:30.027Z,31.50
2022-10-13T22:06:34.858Z,30.80
2022-10-13T22:08:40.933Z,31.70
2022-10-13T22:11:00.464Z,31.00
2022-10-13T22:13:05.162Z,28.30
2022-10-13T22:15:13.237Z,33.70
2022-10-13T22:17:18.085Z,32.90
2022-10-13T22:19:22.912Z,31.00
2022-10-13T22:21:29.568Z,34.20
2022-10-13T22:23:34.395Z,30.90
2022-10-13T22:25:44.727Z,31.80
2022-10-13T22:27:49.361Z,33.50
2022-10-13T22:29:54.095Z,32.70
2022-10-13T22:31:59.212Z,34.20
2022-10-13T22:34:04.388Z,34.20
2022-10-13T22:36:11.951Z,33.10
2022-10-13T22:38:16.812Z,32.40
2022-10-13T22:40:21.434Z,35.30
2022-10-13T22:42:26.361Z,34.00
2022-10-13T22:44:31.462Z,34.60
2022-10-13T22:46:39.529Z,31.70
2022-10-13T22:48:48.457Z,32.70
2022-10-13T22:50:53.150Z,33.60
2022-10-13T22:52:57.790Z,31.90
2022-10-13T22:55:02.444Z,36.70
2022-10-13T22:57:09.300Z,31.80
2022-10-13T22:59:14.134Z,32.70
2022-10-13T23:01:19.464Z,31.50
2022-10-13T23:03:24.248Z,33.60
2022-10-13T23:05:30.267Z,32.40
2022-10-13T23:07:34.943Z,32.40
2022-10-13T23:09:39.760Z,35.80
2022-10-13T23:11:44.515Z,33.30
2022-10-13T23:13:56.120Z,34.70
2022-10-13T23:16:05.641Z,32.50
2022-10-13T23:18:11.939Z,28.80
2022-10-13T23:20:16.757Z,33.20
2022-10-13T23:22:21.498Z,31.20
2022-10-13T23:24:27.410Z,31.10
2022-10-13T23:26:32.570Z,31.80
2022-10-13T23:28:37.538Z,32.90
2022-10-13T23:30:42.315Z,32.20
2022-10-13T23:32:47.118Z,29.30
2022-10-13T23:34:51.908Z,32.30
2022-10-13T23:36:57.340Z,32.10
2022-10-13T23:39:04.045Z,30.90
2022-10-13T23:41:11.282Z,29.40
2022-10-13T23:43:16.251Z,30.90
2022-10-13T23:45:21.275Z,30.20
2022-10-13T23:47:26.171Z,32.40
2022-10-13T23:49:30.980Z,31.20
2022-10-13T23:51:35.824Z,33.50
2022-10-13T23:53:41.741Z,32.70
2022-10-13T23:55:46.716Z,33.20
2022-10-13T23:57:51.461Z,32.00
2022-10-13T23:59:56.307Z,33.80
